Time;durP1;ratioP1;P1;durP2;ratioP2;P2;SDS_P1;SDS_P2;PMS_P1;PMS_P2;Temp;Humidity;BMP_temperature;BMP_pressure;BME280_temperature;BME280_humidity;BME280_pressure;Samples;Min_cycle;Max_cycle;Signal;HPM_P1;HPM_P2
2021/09/06 00:00:14;;;;;;;21.10;19.00;;;13.60;99.90;;;;;;4421104;32;20186;-64
2021/09/06 00:02:41;;;;;;;22.33;20.10;;;13.60;99.90;;;;;;4422828;32;20193;-63
2021/09/06 00:05:11;;;;;;;23.00;20.70;;;13.50;99.90;;;;;;4435939;32;20219;-66
2021/09/06 00:07:38;;;;;;;20.83;18.60;;;13.50;99.90;;;;;;4427003;32;20197;-64
2021/09/06 00:10:28;;;;;;;21.40;19.30;;;13.50;99.90;;;;;;4421265;32;20501;-66
2021/09/06 00:12:55;;;;;;;22.23;19.93;;;13.40;99.90;;;;;;4421397;32;20518;-68
2021/09/06 00:15:22;;;;;;;22.33;20.13;;;13.40;99.90;;;;;;4420646;32;20143;-65
2021/09/06 00:17:49;;;;;;;22.87;19.17;;;13.40;99.90;;;;;;4422685;32;20175;-66
2021/09/06 00:20:17;;;;;;;23.50;21.10;;;13.40;99.90;;;;;;4427354;32;20151;-66
2021/09/06 00:22:44;;;;;;;22.97;20.60;;;13.40;99.90;;;;;;4420864;32;20174;-66
2021/09/06 00:25:11;;;;;;;26.13;20.83;;;13.40;99.90;;;;;;4423656;32;20754;-69
2021/09/06 00:27:38;;;;;;;22.27;19.87;;;13.30;99.90;;;;;;4422291;32;20566;-64
2021/09/06 00:30:06;;;;;;;24.87;22.27;;;13.40;99.90;;;;;;4420757;32;20146;-66
2021/09/06 00:32:36;;;;;;;24.00;21.27;;;13.40;99.90;;;;;;4420514;32;20171;-66
2021/09/06 00:35:03;;;;;;;26.03;21.13;;;13.30;99.90;;;;;;4433048;32;20519;-65
2021/09/06 00:37:31;;;;;;;24.27;20.93;;;13.20;99.90;;;;;;4434520;32;20634;-66
2021/09/06 00:39:58;;;;;;;23.53;21.13;;;13.20;99.90;;;;;;4432637;32;20221;-66
2021/09/06 00:42:27;;;;;;;24.00;21.67;;;13.20;99.90;;;;;;4428581;32;20615;-66
2021/09/06 00:44:54;;;;;;;25.07;21.77;;;13.30;99.90;;;;;;4433241;32;20595;-66
2021/09/06 00:47:21;;;;;;;23.77;20.73;;;13.30;99.90;;;;;;4428629;32;20155;-65
2021/09/06 00:49:48;;;;;;;23.77;21.20;;;13.30;99.90;;;;;;4426241;32;20171;-66
2021/09/06 00:52:15;;;;;;;24.00;20.37;;;13.20;99.90;;;;;;4430688;32;20167;-68
2021/09/06 00:54:44;;;;;;;24.60;21.90;;;13.20;99.90;;;;;;4435228;32;20255;-65
2021/09/06 00:57:10;;;;;;;25.73;22.93;;;13.20;99.90;;;;;;4438089;32;20224;-65
2021/09/06 00:59:38;;;;;;;25.37;20.37;;;13.20;99.90;;;;;;4438030;32;20189;-68
2021/09/06 01:02:05;;;;;;;23.83;20.87;;;13.10;99.90;;;;;;4423932;32;20211;-65
2021/09/06 01:04:32;;;;;;;24.43;21.07;;;13.10;99.90;;;;;;4423800;32;20260;-66
2021/09/06 01:06:59;;;;;;;26.00;23.23;;;13.20;99.90;;;;;;4424887;32;20578;-66
2021/09/06 01:09:26;;;;;;;24.37;22.07;;;13.10;99.90;;;;;;4428853;32;20174;-66
2021/09/06 01:11:57;;;;;;;24.83;22.13;;;13.10;99.90;;;;;;4438470;32;20143;-65
2021/09/06 01:14:24;;;;;;;24.63;22.27;;;13.10;99.90;;;;;;4433715;32;20178;-65
2021/09/06 01:16:51;;;;;;;25.70;22.57;;;13.10;99.90;;;;;;4423235;32;20157;-68
2021/09/06 01:19:18;;;;;;;25.93;23.23;;;13.10;99.90;;;;;;4423106;32;20214;-64
2021/09/06 01:21:45;;;;;;;23.47;21.03;;;13.00;99.90;;;;;;4423974;32;20594;-66
2021/09/06 01:24:15;;;;;;;24.63;22.03;;;13.00;99.90;;;;;;4424994;32;20208;-65
2021/09/06 01:26:44;;;;;;;23.60;20.43;;;12.90;99.90;;;;;;4433465;32;20287;-65
2021/09/06 01:29:10;;;;;;;25.00;21.30;;;12.90;99.90;;;;;;4431909;32;20155;-66
2021/09/06 01:31:37;;;;;;;23.93;21.27;;;12.90;99.90;;;;;;4438402;32;20157;-67
2021/09/06 01:34:05;;;;;;;24.70;22.43;;;12.90;99.90;;;;;;4436769;32;20158;-68
2021/09/06 01:36:32;;;;;;;26.50;21.70;;;12.90;99.90;;;;;;4433735;32;20344;-65
2021/09/06 01:39:00;;;;;;;26.47;23.23;;;12.80;99.90;;;;;;4422873;32;20150;-65
2021/09/06 01:41:29;;;;;;;25.27;22.53;;;12.80;99.90;;;;;;4428875;32;20571;-65
2021/09/06 01:43:58;;;;;;;24.33;21.93;;;12.80;99.90;;;;;;4437675;32;20148;-65
2021/09/06 01:46:28;;;;;;;24.43;22.07;;;12.80;99.90;;;;;;4437167;32;20175;-65
2021/09/06 01:48:57;;;;;;;24.37;21.87;;;12.80;99.90;;;;;;4437441;32;20146;-67
2021/09/06 01:51:24;;;;;;;24.53;22.23;;;12.80;99.90;;;;;;4433504;32;20163;-65
2021/09/06 01:53:51;;;;;;;26.33;23.83;;;12.70;99.90;;;;;;4422413;32;20230;-65
2021/09/06 01:56:18;;;;;;;26.97;24.27;;;12.70;99.90;;;;;;4423169;32;20241;-65
2021/09/06 01:58:45;;;;;;;24.37;21.90;;;12.70;99.90;;;;;;4424182;32;20222;-65
2021/09/06 02:01:13;;;;;;;26.87;24.27;;;12.70;99.90;;;;;;4424287;32;20151;-65
2021/09/06 02:03:43;;;;;;;24.30;21.80;;;12.70;99.90;;;;;;4437719;32;20152;-67
2021/09/06 02:06:10;;;;;;;26.13;23.50;;;12.60;99.90;;;;;;4436329;32;20178;-66
2021/09/06 02:08:37;;;;;;;24.33;21.70;;;12.70;99.90;;;;;;4437063;32;20177;-65
2021/09/06 02:11:05;;;;;;;25.90;23.10;;;12.70;99.90;;;;;;4438537;32;20142;-65
2021/09/06 02:13:32;;;;;;;25.70;23.03;;;12.60;99.90;;;;;;4422171;32;20536;-67
2021/09/06 02:15:58;;;;;;;24.07;21.77;;;12.60;99.90;;;;;;4422573;32;20211;-65
2021/09/06 02:18:27;;;;;;;25.67;23.17;;;12.50;99.90;;;;;;4436066;32;20179;-65
2021/09/06 02:20:54;;;;;;;27.63;24.73;;;12.50;99.90;;;;;;4437611;32;20183;-66
2021/09/06 02:23:21;;;;;;;27.07;22.90;;;12.50;99.90;;;;;;4430715;32;20189;-65
2021/09/06 02:25:47;;;;;;;27.00;21.70;;;12.50;99.90;;;;;;4431399;32;20542;-65
2021/09/06 02:28:14;;;;;;;26.10;22.53;;;12.50;99.90;;;;;;4423418;32;20226;-65
2021/09/06 02:30:41;;;;;;;25.73;23.23;;;12.50;99.90;;;;;;4429173;32;20162;-65
2021/09/06 02:33:08;;;;;;;24.87;22.20;;;12.50;99.90;;;;;;4437149;32;20147;-64
2021/09/06 02:35:36;;;;;;;30.70;25.00;;;12.50;99.90;;;;;;4436187;32;20167;-65
2021/09/06 02:38:04;;;;;;;28.97;25.87;;;12.60;99.90;;;;;;4437140;32;20622;-65
2021/09/06 02:40:30;;;;;;;27.53;25.03;;;12.60;99.90;;;;;;4431340;32;20521;-67
2021/09/06 02:42:57;;;;;;;28.67;25.77;;;12.60;99.90;;;;;;4421573;32;20212;-65
2021/09/06 02:45:24;;;;;;;28.07;25.23;;;12.50;99.90;;;;;;4422327;32;20155;-65
2021/09/06 02:47:53;;;;;;;26.70;23.93;;;12.50;99.90;;;;;;4421816;32;20182;-65
2021/09/06 02:50:20;;;;;;;27.20;24.53;;;12.60;99.90;;;;;;4435576;32;20436;-65
2021/09/06 02:52:48;;;;;;;28.33;24.37;;;12.50;99.90;;;;;;4436372;32;20219;-66
2021/09/06 02:55:17;;;;;;;29.13;26.00;;;12.50;99.90;;;;;;4435585;32;20169;-65
2021/09/06 02:57:44;;;;;;;27.93;24.93;;;12.50;99.90;;;;;;4436866;32;20147;-67
2021/09/06 03:00:12;;;;;;;26.80;24.07;;;12.50;99.90;;;;;;4424061;32;20219;-66
2021/09/06 03:02:39;;;;;;;29.17;25.80;;;12.50;99.90;;;;;;4429548;32;20198;-65
2021/09/06 03:05:07;;;;;;;27.30;24.43;;;12.50;99.90;;;;;;4432041;32;20166;-65
2021/09/06 03:07:34;;;;;;;27.80;24.97;;;12.50;99.90;;;;;;4437354;32;20165;-65
2021/09/06 03:10:02;;;;;;;28.27;25.47;;;12.40;99.90;;;;;;4426783;32;20186;-65
2021/09/06 03:12:29;;;;;;;28.67;25.60;;;12.40;99.90;;;;;;4421175;32;20148;-68
2021/09/06 03:14:56;;;;;;;26.63;24.03;;;12.40;99.90;;;;;;4430506;32;20617;-64
2021/09/06 03:17:22;;;;;;;26.13;23.53;;;12.40;99.90;;;;;;4436455;32;20252;-64
2021/09/06 03:19:49;;;;;;;26.13;23.50;;;12.30;99.90;;;;;;4436881;32;20594;-65
2021/09/06 03:22:18;;;;;;;26.50;24.00;;;12.30;99.90;;;;;;4436434;32;20601;-66
2021/09/06 03:24:44;;;;;;;29.73;25.63;;;12.30;99.90;;;;;;4432429;32;20186;-63
2021/09/06 03:27:16;;;;;;;25.37;22.80;;;12.30;99.90;;;;;;4435444;32;20159;-65
2021/09/06 03:29:43;;;;;;;28.37;23.93;;;12.20;99.90;;;;;;4432611;32;20223;-66
2021/09/06 03:32:11;;;;;;;28.57;25.63;;;12.30;99.90;;;;;;4436309;32;20166;-65
2021/09/06 03:34:38;;;;;;;27.47;24.67;;;12.20;99.90;;;;;;4435384;32;20575;-65
2021/09/06 03:37:05;;;;;;;31.20;27.90;;;12.20;99.90;;;;;;4432315;32;20173;-65
2021/09/06 03:39:32;;;;;;;28.53;25.47;;;12.30;99.90;;;;;;4436343;32;20147;-65
2021/09/06 03:41:59;;;;;;;28.13;25.13;;;12.30;99.90;;;;;;4434644;32;20190;-68
2021/09/06 03:44:28;;;;;;;29.80;26.80;;;12.30;99.90;;;;;;4420886;32;20162;-64
2021/09/06 03:46:55;;;;;;;28.70;25.70;;;12.20;99.90;;;;;;4421502;32;20159;-66
2021/09/06 03:49:21;;;;;;;32.77;29.20;;;12.20;99.90;;;;;;4420643;32;20174;-65
2021/09/06 03:51:49;;;;;;;28.67;25.57;;;12.20;99.90;;;;;;4420487;32;20227;-66
2021/09/06 03:54:15;;;;;;;31.60;28.37;;;12.20;99.90;;;;;;4420849;32;20147;-65
2021/09/06 03:56:45;;;;;;;31.13;27.83;;;12.20;99.90;;;;;;4420768;32;20589;-67
2021/09/06 03:59:13;;;;;;;30.03;26.83;;;12.20;99.90;;;;;;4421241;32;20454;-64
2021/09/06 04:01:42;;;;;;;29.97;26.87;;;12.20;99.90;;;;;;4420835;32;20144;-67
2021/09/06 04:04:08;;;;;;;29.83;24.40;;;12.20;99.90;;;;;;4434343;32;20166;-64
2021/09/06 04:06:35;;;;;;;27.43;24.10;;;12.20;99.90;;;;;;4436050;32;20170;-64
2021/09/06 04:09:02;;;;;;;25.90;23.40;;;12.20;99.90;;;;;;4424855;32;20449;-67
2021/09/06 04:11:30;;;;;;;28.33;25.50;;;12.20;99.90;;;;;;4420566;32;20151;-66
2021/09/06 04:13:56;;;;;;;28.70;25.70;;;12.20;99.90;;;;;;4420748;32;20168;-64
2021/09/06 04:16:25;;;;;;;27.43;24.63;;;12.10;99.90;;;;;;4422321;32;20307;-64
2021/09/06 04:18:54;;;;;;;29.13;25.23;;;12.20;99.90;;;;;;4420995;32;20167;-65
2021/09/06 04:21:20;;;;;;;29.50;26.40;;;12.20;99.90;;;;;;4420713;32;20167;-65
2021/09/06 04:23:47;;;;;;;31.77;28.77;;;12.20;99.90;;;;;;4420756;32;20185;-65
2021/09/06 04:26:14;;;;;;;29.30;26.30;;;12.10;99.90;;;;;;4428945;32;20586;-64
2021/09/06 04:28:41;;;;;;;28.57;25.43;;;12.10;99.90;;;;;;4434359;32;20178;-65
2021/09/06 04:31:08;;;;;;;28.43;25.47;;;12.10;99.90;;;;;;4423686;32;20586;-64
2021/09/06 04:33:34;;;;;;;29.20;25.93;;;12.10;99.90;;;;;;4430853;32;20195;-64
2021/09/06 04:36:03;;;;;;;29.77;24.13;;;12.10;99.90;;;;;;4440580;32;20139;-65
2021/09/06 04:38:29;;;;;;;28.97;24.53;;;12.10;99.90;;;;;;4432636;32;20158;-64
2021/09/06 04:40:56;;;;;;;28.63;25.43;;;12.00;99.90;;;;;;4431503;32;20579;-64
2021/09/06 04:43:23;;;;;;;27.43;24.63;;;12.10;99.90;;;;;;4423465;32;20178;-65
2021/09/06 04:45:50;;;;;;;26.63;23.97;;;12.00;99.90;;;;;;4423657;32;20159;-65
2021/09/06 04:48:18;;;;;;;27.73;24.87;;;12.00;99.90;;;;;;4424057;32;20597;-65
2021/09/06 04:50:44;;;;;;;27.67;23.93;;;12.00;99.90;;;;;;4423065;32;20241;-65
2021/09/06 04:53:13;;;;;;;27.17;24.33;;;12.00;99.90;;;;;;4435966;32;20155;-64
2021/09/06 04:55:40;;;;;;;27.27;24.23;;;12.00;99.90;;;;;;4439498;32;20606;-64
2021/09/06 04:58:07;;;;;;;27.90;24.37;;;12.00;99.90;;;;;;4427008;32;20437;-67
2021/09/06 05:00:34;;;;;;;27.73;24.90;;;12.00;99.90;;;;;;4424999;32;20162;-65
2021/09/06 05:03:02;;;;;;;28.57;24.57;;;12.00;99.90;;;;;;4431845;32;20174;-64
2021/09/06 05:05:29;;;;;;;27.70;23.77;;;12.00;99.90;;;;;;4438366;32;20497;-66
2021/09/06 05:07:56;;;;;;;29.67;25.73;;;11.90;99.90;;;;;;4437563;32;20226;-64
2021/09/06 05:10:24;;;;;;;28.17;24.33;;;11.90;99.90;;;;;;4438319;32;20143;-64
2021/09/06 05:12:52;;;;;;;30.17;27.13;;;11.90;99.90;;;;;;4436822;32;20178;-64
2021/09/06 05:15:19;;;;;;;30.03;26.97;;;11.90;99.90;;;;;;4438333;32;20577;-66
2021/09/06 05:17:45;;;;;;;27.73;24.73;;;12.00;99.90;;;;;;4430511;32;20534;-64
2021/09/06 05:20:12;;;;;;;27.80;24.83;;;12.00;99.90;;;;;;4428299;32;20182;-63
2021/09/06 05:22:40;;;;;;;26.77;23.37;;;12.00;99.90;;;;;;4433622;32;20190;-63
2021/09/06 05:25:08;;;;;;;29.63;26.53;;;12.00;99.90;;;;;;4424731;32;20159;-64
2021/09/06 05:27:36;;;;;;;32.53;29.07;;;12.00;99.90;;;;;;4432168;32;20238;-65
2021/09/06 05:30:04;;;;;;;29.00;26.07;;;12.10;99.90;;;;;;4428662;32;20179;-64
2021/09/06 05:32:31;;;;;;;28.67;25.63;;;12.10;99.90;;;;;;4431756;32;20151;-63
2021/09/06 05:34:58;;;;;;;30.10;26.37;;;12.10;99.90;;;;;;4430761;32;20170;-62
2021/09/06 05:37:25;;;;;;;29.43;26.23;;;12.20;99.90;;;;;;4423412;32;20206;-65
2021/09/06 05:39:52;;;;;;;31.20;27.80;;;12.30;99.90;;;;;;4421952;32;20241;-65
2021/09/06 05:42:18;;;;;;;26.73;23.60;;;12.30;99.90;;;;;;4431180;32;20650;-66
2021/09/06 05:44:49;;;;;;;29.60;25.57;;;12.40;99.90;;;;;;4427418;32;20222;-66
2021/09/06 05:47:16;;;;;;;30.80;25.03;;;12.40;99.90;;;;;;4429207;32;20193;-63
2021/09/06 05:49:43;;;;;;;30.27;24.87;;;12.40;99.90;;;;;;4429181;32;20171;-63
2021/09/06 05:52:10;;;;;;;29.87;23.57;;;12.50;99.90;;;;;;4429281;32;20182;-63
2021/09/06 05:54:36;;;;;;;27.90;25.00;;;12.50;99.90;;;;;;4424838;32;20241;-63
2021/09/06 05:57:04;;;;;;;28.23;25.27;;;12.60;99.90;;;;;;4426841;32;20623;-64
2021/09/06 05:59:31;;;;;;;29.40;24.73;;;12.70;99.90;;;;;;4432514;32;20182;-64
2021/09/06 06:01:59;;;;;;;27.67;24.77;;;12.70;99.90;;;;;;4425908;32;20433;-63
2021/09/06 06:04:26;;;;;;;31.80;25.57;;;12.80;99.90;;;;;;4428392;32;20182;-63
2021/09/06 06:06:53;;;;;;;31.80;25.27;;;12.80;99.90;;;;;;4429062;32;20223;-63
2021/09/06 06:09:20;;;;;;;28.13;24.73;;;12.90;99.90;;;;;;4427810;32;20238;-64
2021/09/06 06:11:47;;;;;;;28.50;25.47;;;13.00;99.90;;;;;;4429834;32;20171;-64
2021/09/06 06:14:15;;;;;;;29.13;24.33;;;13.10;99.90;;;;;;4428150;32;20229;-63
2021/09/06 06:16:42;;;;;;;30.13;25.47;;;13.30;99.90;;;;;;4429053;32;20230;-63
2021/09/06 06:19:10;;;;;;;30.40;26.03;;;13.30;99.90;;;;;;4429736;32;20158;-63
2021/09/06 06:21:37;;;;;;;35.33;27.73;;;13.40;99.90;;;;;;4425418;32;20245;-63
2021/09/06 06:24:05;;;;;;;33.60;28.53;;;13.40;99.90;;;;;;4430774;32;20224;-64
2021/09/06 06:26:32;;;;;;;31.13;26.57;;;13.50;99.90;;;;;;4427369;32;20226;-63
2021/09/06 06:28:59;;;;;;;31.37;26.23;;;13.60;99.90;;;;;;4428727;32;20212;-64
2021/09/06 06:31:25;;;;;;;28.43;25.33;;;13.70;99.90;;;;;;4431387;32;20189;-64
2021/09/06 06:33:52;;;;;;;29.57;24.47;;;13.80;99.90;;;;;;4428755;32;20189;-63
2021/09/06 06:36:20;;;;;;;34.77;26.13;;;13.90;99.90;;;;;;4425814;32;20151;-63
2021/09/06 06:38:49;;;;;;;35.30;27.70;;;14.00;99.90;;;;;;4429318;32;20192;-63
2021/09/06 06:41:16;;;;;;;32.63;28.00;;;14.20;99.90;;;;;;4427781;32;20150;-63
2021/09/06 06:43:43;;;;;;;31.00;26.30;;;14.30;99.90;;;;;;4432213;32;20529;-63
2021/09/06 06:46:10;;;;;;;30.37;26.93;;;14.50;99.90;;;;;;4424339;32;20201;-63
2021/09/06 06:48:37;;;;;;;29.53;25.47;;;14.60;99.90;;;;;;4427878;32;20182;-63
2021/09/06 06:51:04;;;;;;;29.33;25.17;;;14.70;99.90;;;;;;4430158;32;20186;-64
2021/09/06 06:53:32;;;;;;;32.07;25.23;;;14.80;99.90;;;;;;4428845;32;20522;-64
2021/09/06 06:55:59;;;;;;;30.67;25.60;;;15.00;99.90;;;;;;4430998;32;20150;-63
2021/09/06 06:58:28;;;;;;;29.80;26.70;;;15.20;99.90;;;;;;4429583;32;20163;-63
2021/09/06 07:00:55;;;;;;;28.27;25.27;;;15.30;99.90;;;;;;4428921;32;20151;-64
2021/09/06 07:03:22;;;;;;;31.57;25.83;;;15.50;99.90;;;;;;4428451;32;20159;-64
2021/09/06 07:05:49;;;;;;;28.03;24.80;;;15.60;99.90;;;;;;4429154;32;20234;-62
2021/09/06 07:08:15;;;;;;;27.13;24.00;;;15.80;99.90;;;;;;4426887;32;20224;-64
2021/09/06 07:10:44;;;;;;;28.57;25.23;;;15.90;99.90;;;;;;4426126;32;20151;-64
2021/09/06 07:13:11;;;;;;;29.53;24.40;;;16.10;99.90;;;;;;4428302;32;20178;-65
2021/09/06 07:15:38;;;;;;;30.27;25.30;;;16.30;99.90;;;;;;4424761;32;20219;-64
2021/09/06 07:18:07;;;;;;;28.80;25.80;;;16.50;99.90;;;;;;4427343;32;20218;-64
2021/09/06 07:20:35;;;;;;;26.90;23.47;;;16.60;99.90;;;;;;4427636;32;20160;-64
2021/09/06 07:23:02;;;;;;;27.70;22.53;;;16.70;99.90;;;;;;4428690;32;20163;-64
2021/09/06 07:25:29;;;;;;;30.47;24.07;;;17.00;99.90;;;;;;4426962;32;20502;-64
2021/09/06 07:27:57;;;;;;;29.27;24.27;;;17.20;99.90;;;;;;4425988;32;20171;-64
2021/09/06 07:30:24;;;;;;;27.97;22.37;;;17.40;99.90;;;;;;4425241;32;20178;-64
2021/09/06 07:32:52;;;;;;;24.00;21.10;;;17.70;99.90;;;;;;4429663;32;20572;-64
2021/09/06 07:35:19;;;;;;;28.23;22.13;;;17.90;99.90;;;;;;4427776;32;20169;-64
2021/09/06 07:37:46;;;;;;;28.40;20.17;;;18.10;99.90;;;;;;4429108;32;20224;-64
2021/09/06 07:40:13;;;;;;;25.27;20.40;;;18.30;99.90;;;;;;4425973;32;20160;-64
2021/09/06 07:42:40;;;;;;;26.67;20.43;;;18.50;99.90;;;;;;4427760;32;20146;-64
2021/09/06 07:45:10;;;;;;;27.10;19.87;;;18.80;99.90;;;;;;4427940;32;20181;-64
2021/09/06 07:47:38;;;;;;;26.30;21.47;;;19.00;99.90;;;;;;4430200;32;20528;-64
2021/09/06 07:50:06;;;;;;;23.87;19.30;;;19.30;99.90;;;;;;4426158;32;20175;-63
2021/09/06 07:52:33;;;;;;;21.17;17.77;;;19.60;99.90;;;;;;4426378;32;20234;-66
2021/09/06 07:55:00;;;;;;;23.43;19.67;;;20.00;99.90;;;;;;4427557;32;20575;-63
2021/09/06 07:57:27;;;;;;;26.87;19.60;;;20.30;99.90;;;;;;4428324;32;20155;-65
2021/09/06 07:59:56;;;;;;;22.17;17.43;;;20.70;99.90;;;;;;4429837;32;20147;-67
2021/09/06 08:02:25;;;;;;;25.07;18.63;;;21.30;99.90;;;;;;4434326;32;20173;-65
2021/09/06 08:04:51;;;;;;;23.37;17.77;;;22.10;99.90;;;;;;4433497;32;20595;-65
2021/09/06 08:07:19;;;;;;;21.73;17.33;;;24.10;99.90;;;;;;4430284;32;20627;-67
2021/09/06 08:09:46;;;;;;;18.97;14.27;;;27.50;98.10;;;;;;4423481;32;20217;-68
2021/09/06 08:12:12;;;;;;;17.50;14.40;;;29.40;94.20;;;;;;4428401;32;20613;-68
2021/09/06 08:14:39;;;;;;;18.67;14.20;;;31.50;91.40;;;;;;4430425;32;20171;-65
2021/09/06 08:17:07;;;;;;;16.73;13.57;;;34.50;81.10;;;;;;4432400;32;20151;-66
2021/09/06 08:19:35;;;;;;;15.85;13.65;;;36.30;71.30;;;;;;4434476;32;20611;-65
2021/09/06 08:22:02;;;;;;;14.18;12.70;;;37.90;63.80;;;;;;4435177;32;20540;-64
2021/09/06 08:24:28;;;;;;;15.68;13.82;;;39.40;58.40;;;;;;4422860;32;20190;-63
2021/09/06 08:26:55;;;;;;;14.98;13.30;;;40.80;54.30;;;;;;4433017;32;20195;-66
2021/09/06 08:29:22;;;;;;;18.75;16.92;;;41.50;51.60;;;;;;4428190;32;20463;-69
2021/09/06 08:31:49;;;;;;;16.30;12.95;;;41.60;51.20;;;;;;4423020;32;20171;-68
2021/09/06 08:34:16;;;;;;;16.92;15.32;;;42.60;50.30;;;;;;4432330;32;20535;-65
2021/09/06 08:36:44;;;;;;;19.62;17.90;;;42.80;47.60;;;;;;4434059;32;20167;-67
2021/09/06 08:39:11;;;;;;;19.27;17.67;;;42.20;47.00;;;;;;4426029;32;20178;-66
2021/09/06 08:41:38;;;;;;;21.05;19.45;;;41.80;47.30;;;;;;4422340;32;20222;-68
2021/09/06 08:44:05;;;;;;;21.10;19.35;;;42.00;46.80;;;;;;4422274;32;20209;-67
2021/09/06 08:46:32;;;;;;;20.10;18.40;;;43.00;46.00;;;;;;4426019;32;20170;-65
2021/09/06 08:48:59;;;;;;;20.73;18.95;;;43.80;43.90;;;;;;4425350;32;20222;-67
2021/09/06 08:51:28;;;;;;;17.90;16.50;;;44.40;43.50;;;;;;4422036;32;20162;-67
2021/09/06 08:53:56;;;;;;;20.05;18.45;;;44.40;43.10;;;;;;4425388;32;20154;-67
2021/09/06 08:56:31;;;;;;;20.33;18.65;;;41.70;44.20;;;;;;4425607;32;20179;-66
2021/09/06 08:58:58;;;;;;;16.37;14.87;;;37.80;47.70;;;;;;4427824;32;20170;-68
2021/09/06 09:01:36;;;;;;;13.98;12.65;;;34.20;50.40;;;;;;4425788;32;20190;-66
2021/09/06 09:04:15;;;;;;;21.65;19.80;;;31.40;54.80;;;;;;4425077;32;20154;-64
2021/09/06 09:06:42;;;;;;;15.70;11.50;;;29.30;58.20;;;;;;4425460;32;20230;-64
2021/09/06 09:09:10;;;;;;;13.73;11.27;;;28.00;61.90;;;;;;4425946;32;20211;-63
2021/09/06 09:11:37;;;;;;;16.37;12.60;;;27.10;65.30;;;;;;4428661;32;20201;-65
2021/09/06 09:14:12;;;;;;;12.95;11.48;;;26.40;68.40;;;;;;4427199;32;20590;-65
2021/09/06 09:16:38;;;;;;;13.98;11.68;;;25.90;71.70;;;;;;4428151;32;20219;-65
2021/09/06 09:19:07;;;;;;;15.05;11.15;;;25.40;73.40;;;;;;4426666;32;20206;-66
2021/09/06 09:21:34;;;;;;;16.67;11.70;;;25.00;76.80;;;;;;4433042;32;20247;-65
2021/09/06 09:24:02;;;;;;;13.73;10.65;;;24.70;80.90;;;;;;4429625;32;20218;-67
2021/09/06 09:26:30;;;;;;;13.45;11.12;;;24.00;82.90;;;;;;4428990;32;20465;-66
2021/09/06 09:29:00;;;;;;;13.98;11.48;;;23.90;88.00;;;;;;4430195;32;20190;-67
2021/09/06 09:31:27;;;;;;;15.52;12.85;;;23.90;90.10;;;;;;4429072;32;20155;-66
2021/09/06 09:33:56;;;;;;;13.30;11.23;;;23.60;91.00;;;;;;4428743;32;20237;-64
2021/09/06 09:36:30;;;;;;;16.40;11.12;;;23.60;92.30;;;;;;4429411;32;20519;-67
2021/09/06 09:39:13;;;;;;;15.13;12.63;;;23.80;93.40;;;;;;4428331;32;20502;-67
2021/09/06 09:41:43;;;;;;;15.60;12.93;;;23.70;92.70;;;;;;4427685;32;20151;-66
2021/09/06 09:44:15;;;;;;;12.88;10.25;;;23.70;93.40;;;;;;4432234;32;20181;-66
2021/09/06 09:46:53;;;;;;;15.83;11.60;;;23.70;94.70;;;;;;4425578;32;20160;-67
2021/09/06 09:49:20;;;;;;;14.57;10.85;;;23.80;94.00;;;;;;4425808;32;20143;-67
2021/09/06 09:51:47;;;;;;;15.43;12.25;;;23.90;94.20;;;;;;4426705;32;20182;-66
2021/09/06 09:54:14;;;;;;;13.35;11.30;;;24.10;94.50;;;;;;4428972;32;20173;-65
2021/09/06 09:56:44;;;;;;;16.40;12.77;;;24.10;94.60;;;;;;4432734;32;20160;-66
2021/09/06 09:59:11;;;;;;;14.48;11.43;;;24.10;94.00;;;;;;4426363;32;20240;-65
2021/09/06 10:01:42;;;;;;;12.63;11.18;;;24.10;93.70;;;;;;4426961;32;20614;-66
2021/09/06 10:04:11;;;;;;;16.83;12.73;;;24.10;94.50;;;;;;4425507;32;20178;-67
2021/09/06 10:06:41;;;;;;;13.57;10.80;;;24.20;94.40;;;;;;4423849;32;20492;-65
2021/09/06 10:09:08;;;;;;;12.50;10.70;;;24.30;95.10;;;;;;4426152;32;20477;-66
2021/09/06 10:11:36;;;;;;;16.83;12.25;;;24.40;95.10;;;;;;4424485;32;20155;-68
2021/09/06 10:14:14;;;;;;;13.80;10.85;;;24.40;94.70;;;;;;4431594;32;20524;-66
2021/09/06 10:16:41;;;;;;;14.13;12.65;;;24.30;94.90;;;;;;4424566;32;20175;-66
2021/09/06 10:19:10;;;;;;;13.20;11.05;;;24.30;94.80;;;;;;4429038;32;20178;-67
2021/09/06 10:21:41;;;;;;;12.45;11.02;;;24.30;94.90;;;;;;4434299;32;20166;-66
2021/09/06 10:24:19;;;;;;;11.98;10.68;;;24.40;94.90;;;;;;4434503;32;20480;-66
2021/09/06 10:26:47;;;;;;;13.88;11.02;;;24.50;94.60;;;;;;4428120;32;20519;-65
2021/09/06 10:29:20;;;;;;;16.92;9.75;;;24.60;93.80;;;;;;4433546;32;20590;-65
2021/09/06 10:31:59;;;;;;;13.38;11.45;;;24.60;93.60;;;;;;4437933;32;20150;-66
2021/09/06 10:34:29;;;;;;;10.77;9.73;;;24.70;92.20;;;;;;4435664;32;20182;-66
2021/09/06 10:37:01;;;;;;;11.40;9.50;;;24.80;92.80;;;;;;4426372;32;20640;-66
2021/09/06 10:39:29;;;;;;;11.60;10.20;;;25.20;92.20;;;;;;4425480;32;20224;-65
2021/09/06 10:42:04;;;;;;;15.88;11.75;;;25.30;90.30;;;;;;4424620;32;20158;-65
2021/09/06 10:44:37;;;;;;;11.05;9.95;;;25.50;89.70;;;;;;4427521;32;20217;-66
2021/09/06 10:47:10;;;;;;;11.10;8.52;;;25.50;90.80;;;;;;4424536;32;20155;-66
2021/09/06 10:49:41;;;;;;;11.63;9.50;;;25.50;91.40;;;;;;4426874;32;20163;-66
2021/09/06 10:52:08;;;;;;;13.60;10.82;;;25.30;91.40;;;;;;4423100;32;20155;-65
2021/09/06 10:54:37;;;;;;;12.30;9.55;;;24.90;90.30;;;;;;4432467;32;20154;-65
2021/09/06 10:57:07;;;;;;;16.48;10.52;;;24.80;91.10;;;;;;4428527;32;20186;-64
2021/09/06 10:59:56;;;;;;;11.05;9.85;;;24.60;90.80;;;;;;4429276;32;20162;-68
2021/09/06 11:02:23;;;;;;;10.50;9.40;;;24.30;91.40;;;;;;4435782;32;20154;-66
2021/09/06 11:04:51;;;;;;;9.80;8.00;;;24.00;91.60;;;;;;4425520;32;20182;-65
2021/09/06 11:07:18;;;;;;;13.60;10.70;;;23.80;92.40;;;;;;4429765;32;20215;-67
2021/09/06 11:09:45;;;;;;;11.85;10.13;;;23.90;92.20;;;;;;4424025;32;20503;-66
2021/09/06 11:12:12;;;;;;;12.45;9.90;;;24.00;92.00;;;;;;4432753;32;20570;-67
2021/09/06 11:14:43;;;;;;;11.18;9.32;;;24.20;90.80;;;;;;4433693;32;20245;-66
2021/09/06 11:17:21;;;;;;;10.88;9.23;;;24.30;91.20;;;;;;4426958;32;20211;-64
2021/09/06 11:19:49;;;;;;;13.07;8.93;;;24.30;90.60;;;;;;4426439;32;20207;-65
2021/09/06 11:22:17;;;;;;;11.68;8.80;;;24.40;91.20;;;;;;4430155;32;20222;-64
2021/09/06 11:24:45;;;;;;;10.40;9.10;;;24.50;92.10;;;;;;4427807;32;20657;-68
2021/09/06 11:27:24;;;;;;;12.52;10.02;;;24.50;91.50;;;;;;4428858;32;20583;-66
2021/09/06 11:29:53;;;;;;;11.38;9.65;;;24.50;91.40;;;;;;4431645;32;20605;-66
2021/09/06 11:32:19;;;;;;;11.95;9.32;;;24.50;91.30;;;;;;4434722;32;20574;-67
2021/09/06 11:34:48;;;;;;;11.70;9.00;;;24.50;91.60;;;;;;4435440;32;20177;-66
2021/09/06 11:37:20;;;;;;;10.45;9.32;;;24.60;91.00;;;;;;4426932;32;20174;-66
2021/09/06 11:39:47;;;;;;;10.85;7.82;;;24.80;90.90;;;;;;4431175;32;20509;-68
2021/09/06 11:42:14;;;;;;;10.82;8.73;;;25.00;90.70;;;;;;4428985;32;20181;-68
2021/09/06 11:44:46;;;;;;;11.88;9.55;;;25.20;91.00;;;;;;4430526;32;20196;-68
2021/09/06 11:47:16;;;;;;;10.20;9.05;;;25.20;89.20;;;;;;4427360;32;20247;-65
2021/09/06 11:49:52;;;;;;;11.10;9.60;;;25.00;89.10;;;;;;4427269;32;20159;-66
2021/09/06 11:52:29;;;;;;;11.52;8.70;;;24.90;87.60;;;;;;4369257;32;1694002;-65
2021/09/06 11:54:55;;;;;;;10.82;9.73;;;24.90;87.30;;;;;;4423163;32;20595;-65
2021/09/06 11:57:24;;;;;;;9.30;7.78;;;24.80;87.10;;;;;;4422019;32;20464;-67
2021/09/06 11:59:52;;;;;;;9.18;8.18;;;24.60;86.00;;;;;;4421585;32;20625;-68
2021/09/06 12:02:21;;;;;;;13.23;9.25;;;24.40;83.90;;;;;;4424960;32;20159;-66
2021/09/06 12:04:48;;;;;;;10.55;9.45;;;24.20;84.40;;;;;;4422544;32;20171;-65
2021/09/06 12:07:19;;;;;;;11.57;8.68;;;24.10;85.60;;;;;;4421632;32;20472;-65
2021/09/06 12:09:47;;;;;;;10.15;9.02;;;24.10;87.50;;;;;;4432759;32;20174;-66
2021/09/06 12:12:19;;;;;;;11.50;8.75;;;24.10;86.60;;;;;;4423132;32;20218;-66
2021/09/06 12:14:47;;;;;;;9.95;8.95;;;24.10;85.90;;;;;;4421853;32;20486;-68
2021/09/06 12:17:14;;;;;;;10.38;8.68;;;24.10;83.60;;;;;;4420676;32;20156;-66
2021/09/06 12:19:44;;;;;;;10.15;8.93;;;24.20;84.90;;;;;;4429092;32;20155;-65
2021/09/06 12:22:17;;;;;;;9.05;8.25;;;24.20;84.20;;;;;;4421345;32;20163;-65
2021/09/06 12:24:44;;;;;;;9.65;8.65;;;24.30;86.60;;;;;;4423285;32;20189;-66
2021/09/06 12:27:12;;;;;;;9.50;8.30;;;24.40;88.20;;;;;;4420344;32;20160;-65
2021/09/06 12:29:41;;;;;;;9.52;8.52;;;24.60;88.80;;;;;;4425546;32;20652;-67
2021/09/06 12:32:09;;;;;;;10.82;8.90;;;24.80;87.70;;;;;;4422996;32;20209;-64